createdAt,value
2018-12-18T05:00:59.212Z,98.30
2018-12-18T05:03:21.817Z,98.10
2018-12-18T05:05:44.405Z,98.30
2018-12-18T05:08:07.970Z,98.30
2018-12-18T05:10:30.707Z,98.10
2018-12-18T05:12:53.257Z,97.90
2018-12-18T06:01:36.433Z,99.20
2018-12-18T06:03:59.750Z,99.10
2018-12-18T06:06:23.847Z,99.10
2018-12-18T06:08:46.882Z,99.10
2018-12-18T06:11:09.784Z,98.80
2018-12-18T06:13:32.845Z,98.60
2018-12-18T07:02:27.769Z,98.20
2018-12-18T07:04:50.446Z,98.20
2018-12-18T07:07:13.160Z,98.20
2018-12-18T07:09:35.800Z,98.30
2018-12-18T07:11:58.421Z,98.10
2018-12-18T07:14:21.001Z,98.30
2018-12-18T08:00:17.893Z,99.20
2018-12-18T08:02:40.494Z,98.90
2018-12-18T08:05:03.345Z,98.70
2018-12-18T08:07:25.941Z,98.70
2018-12-18T08:10:04.881Z,98.60
2018-12-18T08:12:27.496Z,98.40
2018-12-18T08:14:50.265Z,98.60
2018-12-18T09:00:29.373Z,98.10
2018-12-18T09:02:51.989Z,98.00
2018-12-18T09:05:14.609Z,98.00
2018-12-18T09:07:37.348Z,98.00
2018-12-18T09:09:59.931Z,97.70
2018-12-18T09:12:22.637Z,97.90
2018-12-18T09:14:51.688Z,97.60
2018-12-18T10:00:29.362Z,81.20
2018-12-18T10:02:52.084Z,75.00
2018-12-18T10:05:14.797Z,76.10
2018-12-18T10:07:37.441Z,75.40
2018-12-18T10:10:01.030Z,69.10
2018-12-18T10:12:29.174Z,72.30
2018-12-18T10:14:51.898Z,67.80
2018-12-18T11:00:35.295Z,49.80
2018-12-18T11:02:57.896Z,50.60
2018-12-18T11:05:20.473Z,50.10
2018-12-18T11:07:43.117Z,51.10
2018-12-18T12:02:30.525Z,58.90
2018-12-18T12:07:16.637Z,59.70
2018-12-18T12:09:39.361Z,59.30
2018-12-18T12:12:01.958Z,59.20
2018-12-18T12:14:24.545Z,60.10
2018-12-18T13:02:45.477Z,43.50
2018-12-18T13:05:08.102Z,42.10
2018-12-18T13:07:30.734Z,43.10
2018-12-18T13:09:53.329Z,43.00
2018-12-18T13:12:15.901Z,43.40
2018-12-18T13:14:38.450Z,44.50
2018-12-18T14:00:17.338Z,61.10
2018-12-18T14:02:39.998Z,62.40
2018-12-18T14:05:02.605Z,62.30
2018-12-18T14:07:25.217Z,63.30
2018-12-18T14:12:47.192Z,64.40
2018-12-18T15:01:28.071Z,75.10
2018-12-18T15:03:50.685Z,76.00
2018-12-18T15:06:13.251Z,78.00
2018-12-18T15:08:35.870Z,77.90
2018-12-18T15:10:59.539Z,78.60
2018-12-18T15:13:22.168Z,79.30
2018-12-18T16:02:04.233Z,90.10
2018-12-18T16:04:26.832Z,90.20
2018-12-18T16:06:49.422Z,90.10
2018-12-18T16:09:12.035Z,90.10
2018-12-18T16:11:34.604Z,90.00
2018-12-18T16:13:57.306Z,90.30
2018-12-18T17:02:36.615Z,90.30
2018-12-18T17:04:59.324Z,90.10
2018-12-18T17:07:21.936Z,90.10
2018-12-18T17:09:44.549Z,90.10
2018-12-18T17:12:07.524Z,90.10
2018-12-18T17:14:30.456Z,90.20
2018-12-18T18:00:19.909Z,90.80
2018-12-18T18:02:43.370Z,90.80
2018-12-18T18:05:11.125Z,90.80
2018-12-18T19:00:16.983Z,91.90
2018-12-18T19:02:39.681Z,92.00
2018-12-18T19:05:07.361Z,92.20
2018-12-18T19:07:30.088Z,92.10
2018-12-18T19:09:52.725Z,92.20
2018-12-18T19:12:15.476Z,92.30
2018-12-18T19:14:38.105Z,92.40
2018-12-18T20:00:20.150Z,93.70
2018-12-18T20:02:42.892Z,93.60
2018-12-18T20:05:06.420Z,93.60
2018-12-18T20:07:29.270Z,93.60
2018-12-18T21:01:22.672Z,93.00
2018-12-18T21:03:45.433Z,93.00
2018-12-18T21:06:08.448Z,93.00
2018-12-18T21:08:31.215Z,92.90
2018-12-18T21:10:54.388Z,92.90
2018-12-18T21:13:23.025Z,93.00
